메인 페이지
METAR-TAF:

METAR-TAF

공항 :

라로통가 국제공항

Rarotonga, 쿡 제도

위도: 21-12S, 경도: 159-49W, 고도: 7m

현재 날씨관측

예보는 41분 전, 16:00시(UTC)에 발표되었습니다.
남동2kt
온도 18°C
습도 100%
기압 1014 hPa
시정 10km 이상
고도 2200ft 상공 구름 조금

METAR: NCRG 151600Z 14002KT 9999 FEW022 18/18 Q1014 RMK DEW

시각: 06:41 (16:41 UTC)

예보

예보는 5 시간 38분 전, 11:03시(UTC)에 발표되었습니다.
예보 대상 시간: 15일 12시부터 16일 12시까지 (UTC)
남동5kt
시정 10km 이상
고도 1800ft 상공 구름 보통

TAF: NCRG 151103Z 1512/1612 14005KT 9999 SCT018

4,000개 이상의 공항 관측 자료 및 예보 (METAR 및 TAF 보고).

지도상에서 검색 가능한 기상관측소가 노란 점과 빨간 점으로 표시되어 있습니다.

기상관측소 명을 보려면 표시 위로 마우스를 이동하세요.

날씨 관측과 예보를 보려면 클릭하세요.

지도 변경 : 확대하려면 엑스 표시가 있는 녹색 버튼, 축소하려면 빼기 표시가 있는 녹색 버튼, 다음 페이지의 지도를 보려면 녹색 화살표를 클릭하세요.


METAR-TAF: